sensor_id;sensor_type;location;lat;lon;timestamp;P1;durP1;ratioP1;P2;durP2;ratioP2
6987;SDS011;3534;49.960;8.018;2022-10-16T00:01:46;3.33;;;2.13;;
6987;SDS011;3534;49.960;8.018;2022-10-16T00:04:12;16.60;;;2.03;;
6987;SDS011;3534;49.960;8.018;2022-10-16T00:06:39;4.53;;;1.73;;
6987;SDS011;3534;49.960;8.018;2022-10-16T00:09:06;1.80;;;1.70;;
6987;SDS011;3534;49.960;8.018;2022-10-16T00:11:37;10.37;;;2.20;;
6987;SDS011;3534;49.960;8.018;2022-10-16T00:14:05;3.53;;;2.13;;
6987;SDS011;3534;49.960;8.018;2022-10-16T00:16:33;2.93;;;2.10;;
6987;SDS011;3534;49.960;8.018;2022-10-16T00:19:00;4.00;;;1.97;;
6987;SDS011;3534;49.960;8.018;2022-10-16T00:21:27;2.90;;;1.60;;
6987;SDS011;3534;49.960;8.018;2022-10-16T00:23:56;2.93;;;1.77;;
6987;SDS011;3534;49.960;8.018;2022-10-16T00:26:25;4.07;;;1.80;;
6987;SDS011;3534;49.960;8.018;2022-10-16T00:28:54;1.87;;;1.50;;
6987;SDS011;3534;49.960;8.018;2022-10-16T00:31:21;6.90;;;1.87;;
6987;SDS011;3534;49.960;8.018;2022-10-16T00:33:48;2.30;;;1.93;;
6987;SDS011;3534;49.960;8.018;2022-10-16T00:36:17;4.70;;;2.10;;
6987;SDS011;3534;49.960;8.018;2022-10-16T00:38:45;2.93;;;1.90;;
6987;SDS011;3534;49.960;8.018;2022-10-16T00:41:12;2.17;;;1.60;;
6987;SDS011;3534;49.960;8.018;2022-10-16T00:43:41;2.17;;;1.60;;
6987;SDS011;3534;49.960;8.018;2022-10-16T00:46:12;1.73;;;1.53;;
6987;SDS011;3534;49.960;8.018;2022-10-16T00:48:42;9.40;;;2.20;;
6987;SDS011;3534;49.960;8.018;2022-10-16T00:51:12;1.70;;;1.60;;
6987;SDS011;3534;49.960;8.018;2022-10-16T00:53:40;2.83;;;1.67;;
6987;SDS011;3534;49.960;8.018;2022-10-16T00:56:07;1.67;;;1.37;;
6987;SDS011;3534;49.960;8.018;2022-10-16T00:58:34;2.70;;;1.60;;
6987;SDS011;3534;49.960;8.018;2022-10-16T01:01:00;4.20;;;1.73;;
6987;SDS011;3534;49.960;8.018;2022-10-16T01:03:30;6.47;;;1.77;;
6987;SDS011;3534;49.960;8.018;2022-10-16T01:06:04;5.77;;;2.33;;
6987;SDS011;3534;49.960;8.018;2022-10-16T01:08:49;5.23;;;1.97;;
6987;SDS011;3534;49.960;8.018;2022-10-16T01:11:25;4.40;;;1.73;;
6987;SDS011;3534;49.960;8.018;2022-10-16T01:13:57;1.80;;;1.43;;
6987;SDS011;3534;49.960;8.018;2022-10-16T01:16:31;3.80;;;1.67;;
6987;SDS011;3534;49.960;8.018;2022-10-16T01:19:08;4.87;;;2.07;;
6987;SDS011;3534;49.960;8.018;2022-10-16T01:21:39;1.50;;;1.40;;
6987;SDS011;3534;49.960;8.018;2022-10-16T01:24:09;3.50;;;1.83;;
6987;SDS011;3534;49.960;8.018;2022-10-16T01:26:59;3.03;;;2.10;;
6987;SDS011;3534;49.960;8.018;2022-10-16T01:29:34;3.97;;;2.07;;
6987;SDS011;3534;49.960;8.018;2022-10-16T01:32:07;3.53;;;1.53;;
6987;SDS011;3534;49.960;8.018;2022-10-16T01:34:42;2.57;;;1.73;;
6987;SDS011;3534;49.960;8.018;2022-10-16T01:37:15;9.10;;;3.80;;
6987;SDS011;3534;49.960;8.018;2022-10-16T01:39:46;8.73;;;5.10;;
6987;SDS011;3534;49.960;8.018;2022-10-16T01:42:16;13.33;;;4.47;;
6987;SDS011;3534;49.960;8.018;2022-10-16T01:44:47;8.83;;;4.63;;
6987;SDS011;3534;49.960;8.018;2022-10-16T01:47:15;9.00;;;3.13;;
6987;SDS011;3534;49.960;8.018;2022-10-16T01:49:45;4.23;;;2.80;;
6987;SDS011;3534;49.960;8.018;2022-10-16T01:52:13;6.20;;;2.57;;
6987;SDS011;3534;49.960;8.018;2022-10-16T01:54:43;2.53;;;2.23;;
6987;SDS011;3534;49.960;8.018;2022-10-16T01:57:13;2.87;;;2.53;;
6987;SDS011;3534;49.960;8.018;2022-10-16T01:59:44;4.30;;;2.27;;
6987;SDS011;3534;49.960;8.018;2022-10-16T02:02:13;4.27;;;2.27;;
6987;SDS011;3534;49.960;8.018;2022-10-16T02:04:44;5.20;;;2.73;;
6987;SDS011;3534;49.960;8.018;2022-10-16T02:07:13;2.90;;;2.17;;
6987;SDS011;3534;49.960;8.018;2022-10-16T02:09:40;8.70;;;2.60;;
6987;SDS011;3534;49.960;8.018;2022-10-16T02:12:08;2.07;;;1.97;;
6987;SDS011;3534;49.960;8.018;2022-10-16T02:14:40;10.80;;;2.40;;
6987;SDS011;3534;49.960;8.018;2022-10-16T02:17:11;11.53;;;3.07;;
6987;SDS011;3534;49.960;8.018;2022-10-16T02:19:40;6.30;;;3.10;;
6987;SDS011;3534;49.960;8.018;2022-10-16T02:22:08;4.13;;;2.70;;
6987;SDS011;3534;49.960;8.018;2022-10-16T02:24:40;11.47;;;3.23;;
6987;SDS011;3534;49.960;8.018;2022-10-16T02:27:13;4.90;;;2.00;;
6987;SDS011;3534;49.960;8.018;2022-10-16T02:29:46;3.30;;;2.20;;
6987;SDS011;3534;49.960;8.018;2022-10-16T02:32:21;5.40;;;2.30;;
6987;SDS011;3534;49.960;8.018;2022-10-16T02:34:50;3.87;;;2.40;;
6987;SDS011;3534;49.960;8.018;2022-10-16T02:37:17;4.17;;;2.27;;
6987;SDS011;3534;49.960;8.018;2022-10-16T02:39:45;2.30;;;2.00;;
6987;SDS011;3534;49.960;8.018;2022-10-16T02:42:12;3.40;;;2.20;;
6987;SDS011;3534;49.960;8.018;2022-10-16T02:44:39;4.03;;;2.40;;
6987;SDS011;3534;49.960;8.018;2022-10-16T02:47:06;3.47;;;1.93;;
6987;SDS011;3534;49.960;8.018;2022-10-16T02:49:34;4.43;;;2.10;;
6987;SDS011;3534;49.960;8.018;2022-10-16T02:52:01;2.00;;;1.90;;
6987;SDS011;3534;49.960;8.018;2022-10-16T02:54:28;10.03;;;2.23;;
6987;SDS011;3534;49.960;8.018;2022-10-16T02:56:54;5.47;;;2.00;;
6987;SDS011;3534;49.960;8.018;2022-10-16T02:59:21;2.17;;;1.80;;
6987;SDS011;3534;49.960;8.018;2022-10-16T03:01:48;2.70;;;2.37;;
6987;SDS011;3534;49.960;8.018;2022-10-16T03:04:14;3.90;;;2.30;;
6987;SDS011;3534;49.960;8.018;2022-10-16T03:06:42;3.30;;;2.13;;
6987;SDS011;3534;49.960;8.018;2022-10-16T03:09:09;3.57;;;2.20;;
6987;SDS011;3534;49.960;8.018;2022-10-16T03:11:36;6.47;;;2.17;;
6987;SDS011;3534;49.960;8.018;2022-10-16T03:14:02;5.10;;;2.47;;
6987;SDS011;3534;49.960;8.018;2022-10-16T03:16:29;5.43;;;2.13;;
6987;SDS011;3534;49.960;8.018;2022-10-16T03:18:56;4.00;;;2.60;;
6987;SDS011;3534;49.960;8.018;2022-10-16T03:21:22;2.80;;;2.10;;
6987;SDS011;3534;49.960;8.018;2022-10-16T03:23:51;3.90;;;2.20;;
6987;SDS011;3534;49.960;8.018;2022-10-16T03:26:17;19.30;;;2.63;;
6987;SDS011;3534;49.960;8.018;2022-10-16T03:28:44;7.40;;;3.10;;
6987;SDS011;3534;49.960;8.018;2022-10-16T03:31:11;4.00;;;2.77;;
6987;SDS011;3534;49.960;8.018;2022-10-16T03:33:38;4.47;;;2.53;;
6987;SDS011;3534;49.960;8.018;2022-10-16T03:36:04;5.63;;;2.30;;
6987;SDS011;3534;49.960;8.018;2022-10-16T03:38:32;2.17;;;2.00;;
6987;SDS011;3534;49.960;8.018;2022-10-16T03:41:00;2.07;;;1.97;;
6987;SDS011;3534;49.960;8.018;2022-10-16T03:43:28;4.60;;;1.90;;
6987;SDS011;3534;49.960;8.018;2022-10-16T03:45:55;4.50;;;2.40;;
6987;SDS011;3534;49.960;8.018;2022-10-16T03:48:22;3.73;;;2.10;;
6987;SDS011;3534;49.960;8.018;2022-10-16T03:50:49;4.73;;;2.50;;
6987;SDS011;3534;49.960;8.018;2022-10-16T03:53:16;5.03;;;2.33;;
6987;SDS011;3534;49.960;8.018;2022-10-16T03:55:44;2.20;;;2.00;;
6987;SDS011;3534;49.960;8.018;2022-10-16T03:58:12;3.53;;;2.70;;
6987;SDS011;3534;49.960;8.018;2022-10-16T04:00:39;4.57;;;2.50;;
6987;SDS011;3534;49.960;8.018;2022-10-16T04:03:07;7.33;;;2.43;;
6987;SDS011;3534;49.960;8.018;2022-10-16T04:05:34;2.50;;;2.30;;
6987;SDS011;3534;49.960;8.018;2022-10-16T04:08:00;4.37;;;2.50;;
6987;SDS011;3534;49.960;8.018;2022-10-16T04:10:27;3.20;;;2.80;;
6987;SDS011;3534;49.960;8.018;2022-10-16T04:12:54;5.70;;;2.40;;
6987;SDS011;3534;49.960;8.018;2022-10-16T04:15:22;2.90;;;2.60;;
6987;SDS011;3534;49.960;8.018;2022-10-16T04:17:49;3.63;;;2.87;;
6987;SDS011;3534;49.960;8.018;2022-10-16T04:20:17;12.20;;;3.43;;
6987;SDS011;3534;49.960;8.018;2022-10-16T04:22:43;5.30;;;3.23;;
6987;SDS011;3534;49.960;8.018;2022-10-16T04:25:11;6.73;;;3.17;;
6987;SDS011;3534;49.960;8.018;2022-10-16T04:27:38;4.33;;;3.50;;
6987;SDS011;3534;49.960;8.018;2022-10-16T04:30:05;6.57;;;3.30;;
6987;SDS011;3534;49.960;8.018;2022-10-16T04:32:34;3.40;;;3.10;;
6987;SDS011;3534;49.960;8.018;2022-10-16T04:35:01;2.97;;;2.73;;
6987;SDS011;3534;49.960;8.018;2022-10-16T04:37:28;4.27;;;3.30;;
6987;SDS011;3534;49.960;8.018;2022-10-16T04:39:54;5.57;;;2.90;;
6987;SDS011;3534;49.960;8.018;2022-10-16T04:42:21;3.63;;;2.90;;
6987;SDS011;3534;49.960;8.018;2022-10-16T04:44:48;5.33;;;3.00;;
6987;SDS011;3534;49.960;8.018;2022-10-16T04:47:15;3.73;;;2.70;;
6987;SDS011;3534;49.960;8.018;2022-10-16T04:49:43;5.60;;;2.60;;
6987;SDS011;3534;49.960;8.018;2022-10-16T04:52:09;3.23;;;2.70;;
6987;SDS011;3534;49.960;8.018;2022-10-16T04:54:36;4.37;;;2.90;;
6987;SDS011;3534;49.960;8.018;2022-10-16T04:57:03;4.53;;;2.83;;
6987;SDS011;3534;49.960;8.018;2022-10-16T04:59:29;3.50;;;3.20;;
6987;SDS011;3534;49.960;8.018;2022-10-16T05:01:56;2.90;;;2.40;;
6987;SDS011;3534;49.960;8.018;2022-10-16T05:04:23;3.70;;;2.50;;
6987;SDS011;3534;49.960;8.018;2022-10-16T05:06:51;5.07;;;2.43;;
6987;SDS011;3534;49.960;8.018;2022-10-16T05:09:18;5.50;;;2.30;;
6987;SDS011;3534;49.960;8.018;2022-10-16T05:11:44;4.07;;;2.60;;
6987;SDS011;3534;49.960;8.018;2022-10-16T05:14:11;3.07;;;2.80;;
6987;SDS011;3534;49.960;8.018;2022-10-16T05:16:38;5.53;;;2.77;;
6987;SDS011;3534;49.960;8.018;2022-10-16T05:19:05;2.23;;;2.13;;
6987;SDS011;3534;49.960;8.018;2022-10-16T05:21:31;4.17;;;2.40;;
6987;SDS011;3534;49.960;8.018;2022-10-16T05:23:59;5.33;;;3.00;;
6987;SDS011;3534;49.960;8.018;2022-10-16T05:26:26;5.73;;;2.13;;
6987;SDS011;3534;49.960;8.018;2022-10-16T05:28:53;6.20;;;2.73;;
6987;SDS011;3534;49.960;8.018;2022-10-16T05:31:20;3.20;;;2.77;;
6987;SDS011;3534;49.960;8.018;2022-10-16T05:33:46;3.27;;;2.60;;
6987;SDS011;3534;49.960;8.018;2022-10-16T05:36:13;4.23;;;2.53;;
6987;SDS011;3534;49.960;8.018;2022-10-16T05:38:40;3.30;;;2.70;;
6987;SDS011;3534;49.960;8.018;2022-10-16T05:41:10;4.70;;;2.50;;
6987;SDS011;3534;49.960;8.018;2022-10-16T05:43:36;4.67;;;2.53;;
6987;SDS011;3534;49.960;8.018;2022-10-16T05:46:04;4.90;;;3.10;;
6987;SDS011;3534;49.960;8.018;2022-10-16T05:48:32;4.80;;;3.87;;
6987;SDS011;3534;49.960;8.018;2022-10-16T05:50:59;9.63;;;5.60;;
6987;SDS011;3534;49.960;8.018;2022-10-16T05:53:27;6.70;;;3.70;;
6987;SDS011;3534;49.960;8.018;2022-10-16T05:55:55;6.23;;;2.70;;
6987;SDS011;3534;49.960;8.018;2022-10-16T05:58:23;4.40;;;2.63;;
6987;SDS011;3534;49.960;8.018;2022-10-16T06:00:54;2.47;;;2.27;;
6987;SDS011;3534;49.960;8.018;2022-10-16T06:03:22;6.60;;;2.77;;
6987;SDS011;3534;49.960;8.018;2022-10-16T06:05:49;3.57;;;2.73;;
6987;SDS011;3534;49.960;8.018;2022-10-16T06:08:16;2.43;;;2.23;;
6987;SDS011;3534;49.960;8.018;2022-10-16T06:10:42;3.10;;;2.10;;
6987;SDS011;3534;49.960;8.018;2022-10-16T06:13:09;6.50;;;3.10;;
6987;SDS011;3534;49.960;8.018;2022-10-16T06:15:38;13.03;;;2.70;;
6987;SDS011;3534;49.960;8.018;2022-10-16T06:18:06;4.20;;;2.47;;
6987;SDS011;3534;49.960;8.018;2022-10-16T06:20:33;3.53;;;2.23;;
6987;SDS011;3534;49.960;8.018;2022-10-16T06:23:00;6.13;;;3.03;;
6987;SDS011;3534;49.960;8.018;2022-10-16T06:25:27;2.63;;;2.43;;
6987;SDS011;3534;49.960;8.018;2022-10-16T06:27:53;5.50;;;3.30;;
6987;SDS011;3534;49.960;8.018;2022-10-16T06:30:20;3.30;;;2.83;;
6987;SDS011;3534;49.960;8.018;2022-10-16T06:32:48;4.93;;;2.57;;
6987;SDS011;3534;49.960;8.018;2022-10-16T06:35:15;9.40;;;2.80;;
6987;SDS011;3534;49.960;8.018;2022-10-16T06:37:41;7.37;;;4.60;;
6987;SDS011;3534;49.960;8.018;2022-10-16T06:40:08;8.93;;;6.17;;
6987;SDS011;3534;49.960;8.018;2022-10-16T06:42:35;10.57;;;6.40;;
6987;SDS011;3534;49.960;8.018;2022-10-16T06:45:02;7.80;;;4.37;;
6987;SDS011;3534;49.960;8.018;2022-10-16T06:47:29;8.40;;;4.00;;
6987;SDS011;3534;49.960;8.018;2022-10-16T06:49:57;7.50;;;4.53;;
6987;SDS011;3534;49.960;8.018;2022-10-16T06:52:24;6.80;;;4.50;;
6987;SDS011;3534;49.960;8.018;2022-10-16T06:54:50;6.40;;;5.13;;
6987;SDS011;3534;49.960;8.018;2022-10-16T06:57:17;6.10;;;5.03;;
6987;SDS011;3534;49.960;8.018;2022-10-16T06:59:44;5.93;;;4.83;;
6987;SDS011;3534;49.960;8.018;2022-10-16T07:02:11;6.27;;;5.17;;
6987;SDS011;3534;49.960;8.018;2022-10-16T07:04:37;4.30;;;3.90;;
6987;SDS011;3534;49.960;8.018;2022-10-16T07:07:05;5.60;;;3.80;;
6987;SDS011;3534;49.960;8.018;2022-10-16T07:09:32;5.90;;;3.80;;
6987;SDS011;3534;49.960;8.018;2022-10-16T07:11:59;4.60;;;4.10;;
6987;SDS011;3534;49.960;8.018;2022-10-16T07:14:26;8.03;;;4.13;;
6987;SDS011;3534;49.960;8.018;2022-10-16T07:16:52;6.17;;;4.77;;
6987;SDS011;3534;49.960;8.018;2022-10-16T07:19:19;7.07;;;4.47;;
6987;SDS011;3534;49.960;8.018;2022-10-16T07:21:46;11.23;;;4.90;;
6987;SDS011;3534;49.960;8.018;2022-10-16T07:24:15;7.23;;;5.00;;
6987;SDS011;3534;49.960;8.018;2022-10-16T07:26:42;7.83;;;4.97;;
6987;SDS011;3534;49.960;8.018;2022-10-16T07:29:11;7.27;;;4.90;;
6987;SDS011;3534;49.960;8.018;2022-10-16T07:31:39;5.23;;;4.67;;
6987;SDS011;3534;49.960;8.018;2022-10-16T07:34:06;7.13;;;6.07;;
6987;SDS011;3534;49.960;8.018;2022-10-16T07:36:33;12.73;;;6.43;;
6987;SDS011;3534;49.960;8.018;2022-10-16T07:39:00;6.67;;;6.03;;
6987;SDS011;3534;49.960;8.018;2022-10-16T07:41:28;8.17;;;6.20;;
6987;SDS011;3534;49.960;8.018;2022-10-16T07:43:57;6.43;;;5.83;;
6987;SDS011;3534;49.960;8.018;2022-10-16T07:46:25;8.30;;;5.27;;
6987;SDS011;3534;49.960;8.018;2022-10-16T07:48:52;15.40;;;6.00;;
6987;SDS011;3534;49.960;8.018;2022-10-16T07:51:19;7.90;;;5.30;;
6987;SDS011;3534;49.960;8.018;2022-10-16T07:53:47;6.03;;;4.73;;
6987;SDS011;3534;49.960;8.018;2022-10-16T07:56:15;9.20;;;4.57;;
6987;SDS011;3534;49.960;8.018;2022-10-16T07:58:44;7.70;;;4.60;;
6987;SDS011;3534;49.960;8.018;2022-10-16T08:01:12;10.80;;;4.73;;
6987;SDS011;3534;49.960;8.018;2022-10-16T08:03:41;5.53;;;4.20;;
6987;SDS011;3534;49.960;8.018;2022-10-16T08:06:08;8.03;;;5.37;;
6987;SDS011;3534;49.960;8.018;2022-10-16T08:08:35;5.57;;;4.93;;
6987;SDS011;3534;49.960;8.018;2022-10-16T08:11:01;6.80;;;5.63;;
6987;SDS011;3534;49.960;8.018;2022-10-16T08:13:29;6.93;;;5.23;;
6987;SDS011;3534;49.960;8.018;2022-10-16T08:15:57;5.83;;;4.67;;
6987;SDS011;3534;49.960;8.018;2022-10-16T08:18:24;5.50;;;5.00;;
6987;SDS011;3534;49.960;8.018;2022-10-16T08:20:55;6.40;;;4.80;;
6987;SDS011;3534;49.960;8.018;2022-10-16T08:23:22;5.90;;;5.40;;
6987;SDS011;3534;49.960;8.018;2022-10-16T08:25:50;15.00;;;9.00;;
6987;SDS011;3534;49.960;8.018;2022-10-16T08:28:18;21.60;;;8.40;;
6987;SDS011;3534;49.960;8.018;2022-10-16T08:30:45;20.87;;;11.90;;
6987;SDS011;3534;49.960;8.018;2022-10-16T08:33:13;15.60;;;7.50;;
6987;SDS011;3534;49.960;8.018;2022-10-16T08:35:39;9.60;;;7.37;;
6987;SDS011;3534;49.960;8.018;2022-10-16T08:38:06;7.53;;;6.10;;
6987;SDS011;3534;49.960;8.018;2022-10-16T08:40:33;8.90;;;4.97;;
6987;SDS011;3534;49.960;8.018;2022-10-16T08:43:09;5.17;;;4.70;;
6987;SDS011;3534;49.960;8.018;2022-10-16T08:45:51;11.93;;;7.10;;
6987;SDS011;3534;49.960;8.018;2022-10-16T08:48:33;9.90;;;4.90;;
6987;SDS011;3534;49.960;8.018;2022-10-16T08:51:08;4.90;;;4.27;;
6987;SDS011;3534;49.960;8.018;2022-10-16T08:53:43;6.00;;;4.00;;
6987;SDS011;3534;49.960;8.018;2022-10-16T08:56:14;3.37;;;3.07;;
6987;SDS011;3534;49.960;8.018;2022-10-16T08:58:43;3.20;;;2.90;;
6987;SDS011;3534;49.960;8.018;2022-10-16T09:01:12;3.07;;;2.80;;
6987;SDS011;3534;49.960;8.018;2022-10-16T09:03:54;2.63;;;2.43;;
6987;SDS011;3534;49.960;8.018;2022-10-16T09:09:20;6.40;;;2.03;;
6987;SDS011;3534;49.960;8.018;2022-10-16T09:11:59;3.20;;;2.23;;
6987;SDS011;3534;49.960;8.018;2022-10-16T09:14:34;3.77;;;2.40;;
6987;SDS011;3534;49.960;8.018;2022-10-16T09:17:25;3.03;;;1.90;;
6987;SDS011;3534;49.960;8.018;2022-10-16T09:20:03;10.73;;;2.20;;
6987;SDS011;3534;49.960;8.018;2022-10-16T09:23:08;8.53;;;2.90;;
6987;SDS011;3534;49.960;8.018;2022-10-16T09:25:42;5.00;;;2.53;;
6987;SDS011;3534;49.960;8.018;2022-10-16T09:28:10;2.80;;;2.27;;
6987;SDS011;3534;49.960;8.018;2022-10-16T09:30:37;4.03;;;2.70;;
6987;SDS011;3534;49.960;8.018;2022-10-16T09:33:04;2.10;;;1.90;;
6987;SDS011;3534;49.960;8.018;2022-10-16T09:35:35;9.10;;;3.90;;
6987;SDS011;3534;49.960;8.018;2022-10-16T09:38:04;5.67;;;3.10;;
6987;SDS011;3534;49.960;8.018;2022-10-16T09:40:32;10.03;;;4.43;;
6987;SDS011;3534;49.960;8.018;2022-10-16T09:43:16;4.70;;;3.17;;
6987;SDS011;3534;49.960;8.018;2022-10-16T09:45:55;4.10;;;2.67;;
6987;SDS011;3534;49.960;8.018;2022-10-16T09:48:23;8.50;;;3.57;;
6987;SDS011;3534;49.960;8.018;2022-10-16T09:50:58;4.13;;;2.67;;
6987;SDS011;3534;49.960;8.018;2022-10-16T09:53:37;4.33;;;2.60;;
6987;SDS011;3534;49.960;8.018;2022-10-16T09:56:06;5.43;;;2.60;;
6987;SDS011;3534;49.960;8.018;2022-10-16T09:58:32;2.90;;;2.50;;
6987;SDS011;3534;49.960;8.018;2022-10-16T10:00:59;4.30;;;2.17;;
6987;SDS011;3534;49.960;8.018;2022-10-16T10:03:33;2.83;;;2.43;;
6987;SDS011;3534;49.960;8.018;2022-10-16T10:06:05;4.20;;;2.40;;
6987;SDS011;3534;49.960;8.018;2022-10-16T10:08:52;2.97;;;2.37;;
6987;SDS011;3534;49.960;8.018;2022-10-16T10:14:13;3.90;;;1.90;;
6987;SDS011;3534;49.960;8.018;2022-10-16T10:16:46;1.60;;;1.50;;
6987;SDS011;3534;49.960;8.018;2022-10-16T10:19:14;2.00;;;1.90;;
6987;SDS011;3534;49.960;8.018;2022-10-16T10:21:43;6.73;;;4.67;;
6987;SDS011;3534;49.960;8.018;2022-10-16T10:24:11;5.50;;;2.30;;
6987;SDS011;3534;49.960;8.018;2022-10-16T10:26:41;7.30;;;3.70;;
6987;SDS011;3534;49.960;8.018;2022-10-16T10:29:15;1.57;;;1.47;;
6987;SDS011;3534;49.960;8.018;2022-10-16T10:31:52;3.47;;;1.80;;
6987;SDS011;3534;49.960;8.018;2022-10-16T10:34:27;2.83;;;2.00;;
6987;SDS011;3534;49.960;8.018;2022-10-16T10:37:09;5.60;;;2.40;;
6987;SDS011;3534;49.960;8.018;2022-10-16T10:39:52;4.83;;;1.90;;
6987;SDS011;3534;49.960;8.018;2022-10-16T10:42:24;3.00;;;2.00;;
6987;SDS011;3534;49.960;8.018;2022-10-16T10:45:05;4.73;;;2.37;;
6987;SDS011;3534;49.960;8.018;2022-10-16T10:47:46;3.10;;;2.27;;
6987;SDS011;3534;49.960;8.018;2022-10-16T10:50:22;3.20;;;1.97;;
6987;SDS011;3534;49.960;8.018;2022-10-16T10:53:02;2.17;;;1.80;;
6987;SDS011;3534;49.960;8.018;2022-10-16T10:58:12;4.80;;;1.77;;
6987;SDS011;3534;49.960;8.018;2022-10-16T11:01:04;3.50;;;1.87;;
6987;SDS011;3534;49.960;8.018;2022-10-16T11:03:40;4.83;;;1.83;;
6987;SDS011;3534;49.960;8.018;2022-10-16T11:06:24;3.13;;;1.77;;
6987;SDS011;3534;49.960;8.018;2022-10-16T11:08:57;1.90;;;1.80;;
6987;SDS011;3534;49.960;8.018;2022-10-16T11:11:34;2.90;;;2.20;;
6987;SDS011;3534;49.960;8.018;2022-10-16T11:14:05;1.87;;;1.77;;
6987;SDS011;3534;49.960;8.018;2022-10-16T11:16:38;3.63;;;2.80;;
6987;SDS011;3534;49.960;8.018;2022-10-16T11:19:10;2.70;;;1.50;;
6987;SDS011;3534;49.960;8.018;2022-10-16T11:21:42;1.20;;;0.93;;
6987;SDS011;3534;49.960;8.018;2022-10-16T11:24:19;1.60;;;1.50;;
6987;SDS011;3534;49.960;8.018;2022-10-16T11:26:49;1.60;;;1.30;;
6987;SDS011;3534;49.960;8.018;2022-10-16T11:29:21;1.90;;;1.30;;
6987;SDS011;3534;49.960;8.018;2022-10-16T11:31:53;3.30;;;1.40;;
6987;SDS011;3534;49.960;8.018;2022-10-16T11:34:25;3.20;;;1.37;;
6987;SDS011;3534;49.960;8.018;2022-10-16T11:36:58;2.40;;;1.50;;
6987;SDS011;3534;49.960;8.018;2022-10-16T11:39:33;1.47;;;1.30;;
6987;SDS011;3534;49.960;8.018;2022-10-16T11:42:01;1.60;;;1.50;;
6987;SDS011;3534;49.960;8.018;2022-10-16T11:44:36;1.93;;;1.70;;
6987;SDS011;3534;49.960;8.018;2022-10-16T11:47:15;1.60;;;1.50;;
6987;SDS011;3534;49.960;8.018;2022-10-16T11:49:50;1.60;;;1.50;;
6987;SDS011;3534;49.960;8.018;2022-10-16T11:52:25;4.13;;;1.73;;
6987;SDS011;3534;49.960;8.018;2022-10-16T11:54:59;1.50;;;1.30;;
6987;SDS011;3534;49.960;8.018;2022-10-16T11:57:31;2.67;;;1.67;;
6987;SDS011;3534;49.960;8.018;2022-10-16T12:00:02;3.00;;;1.80;;
6987;SDS011;3534;49.960;8.018;2022-10-16T12:02:38;1.57;;;1.47;;
6987;SDS011;3534;49.960;8.018;2022-10-16T12:05:15;1.30;;;1.20;;
6987;SDS011;3534;49.960;8.018;2022-10-16T12:07:51;1.60;;;1.30;;
6987;SDS011;3534;49.960;8.018;2022-10-16T12:10:29;1.40;;;1.23;;
6987;SDS011;3534;49.960;8.018;2022-10-16T12:13:01;4.17;;;1.67;;
6987;SDS011;3534;49.960;8.018;2022-10-16T12:15:30;1.47;;;1.10;;
6987;SDS011;3534;49.960;8.018;2022-10-16T12:17:58;1.60;;;1.50;;
6987;SDS011;3534;49.960;8.018;2022-10-16T12:20:26;1.30;;;1.17;;
6987;SDS011;3534;49.960;8.018;2022-10-16T12:22:57;3.27;;;1.27;;
6987;SDS011;3534;49.960;8.018;2022-10-16T12:25:29;1.17;;;1.07;;
6987;SDS011;3534;49.960;8.018;2022-10-16T12:27:58;4.40;;;1.10;;
6987;SDS011;3534;49.960;8.018;2022-10-16T12:30:30;2.40;;;2.20;;
6987;SDS011;3534;49.960;8.018;2022-10-16T12:32:58;4.40;;;2.30;;
6987;SDS011;3534;49.960;8.018;2022-10-16T12:35:28;2.70;;;2.20;;
6987;SDS011;3534;49.960;8.018;2022-10-16T12:38:04;5.97;;;2.20;;
6987;SDS011;3534;49.960;8.018;2022-10-16T12:40:42;1.80;;;1.70;;
6987;SDS011;3534;49.960;8.018;2022-10-16T12:43:11;3.17;;;1.60;;
6987;SDS011;3534;49.960;8.018;2022-10-16T12:45:38;2.53;;;1.30;;
6987;SDS011;3534;49.960;8.018;2022-10-16T12:48:18;1.90;;;1.70;;
6987;SDS011;3534;49.960;8.018;2022-10-16T12:50:47;1.97;;;1.20;;
6987;SDS011;3534;49.960;8.018;2022-10-16T12:53:17;1.77;;;1.67;;
6987;SDS011;3534;49.960;8.018;2022-10-16T12:55:50;3.53;;;1.60;;
6987;SDS011;3534;49.960;8.018;2022-10-16T12:58:25;1.90;;;1.73;;
6987;SDS011;3534;49.960;8.018;2022-10-16T13:01:06;1.73;;;1.53;;
6987;SDS011;3534;49.960;8.018;2022-10-16T13:06:33;2.57;;;1.70;;
6987;SDS011;3534;49.960;8.018;2022-10-16T13:09:19;1.77;;;1.53;;
6987;SDS011;3534;49.960;8.018;2022-10-16T13:12:02;5.73;;;2.37;;
6987;SDS011;3534;49.960;8.018;2022-10-16T13:17:34;1.97;;;1.87;;
6987;SDS011;3534;49.960;8.018;2022-10-16T13:20:12;2.70;;;1.80;;
6987;SDS011;3534;49.960;8.018;2022-10-16T13:22:48;3.00;;;2.10;;
6987;SDS011;3534;49.960;8.018;2022-10-16T13:25:22;1.73;;;1.63;;
6987;SDS011;3534;49.960;8.018;2022-10-16T13:27:56;2.50;;;1.33;;
6987;SDS011;3534;49.960;8.018;2022-10-16T13:30:26;2.37;;;1.53;;
6987;SDS011;3534;49.960;8.018;2022-10-16T13:32:57;2.07;;;1.30;;
6987;SDS011;3534;49.960;8.018;2022-10-16T13:35:26;4.80;;;1.70;;
6987;SDS011;3534;49.960;8.018;2022-10-16T13:38:11;1.93;;;1.50;;
6987;SDS011;3534;49.960;8.018;2022-10-16T13:40:48;4.80;;;1.77;;
6987;SDS011;3534;49.960;8.018;2022-10-16T13:43:18;1.70;;;1.53;;
6987;SDS011;3534;49.960;8.018;2022-10-16T13:45:54;2.40;;;1.80;;
6987;SDS011;3534;49.960;8.018;2022-10-16T13:48:23;2.83;;;1.60;;
6987;SDS011;3534;49.960;8.018;2022-10-16T13:50:59;5.40;;;1.70;;
6987;SDS011;3534;49.960;8.018;2022-10-16T13:53:27;4.07;;;1.93;;
6987;SDS011;3534;49.960;8.018;2022-10-16T13:55:55;2.43;;;1.80;;
6987;SDS011;3534;49.960;8.018;2022-10-16T13:58:24;1.70;;;1.60;;
6987;SDS011;3534;49.960;8.018;2022-10-16T14:00:54;2.00;;;1.70;;
6987;SDS011;3534;49.960;8.018;2022-10-16T14:03:22;1.90;;;1.50;;
6987;SDS011;3534;49.960;8.018;2022-10-16T14:05:51;1.50;;;1.40;;
6987;SDS011;3534;49.960;8.018;2022-10-16T14:08:19;1.73;;;1.43;;
6987;SDS011;3534;49.960;8.018;2022-10-16T14:10:47;1.90;;;1.80;;
6987;SDS011;3534;49.960;8.018;2022-10-16T14:13:16;2.87;;;1.60;;
6987;SDS011;3534;49.960;8.018;2022-10-16T14:15:47;2.47;;;1.80;;
6987;SDS011;3534;49.960;8.018;2022-10-16T14:18:18;2.33;;;1.87;;
6987;SDS011;3534;49.960;8.018;2022-10-16T14:20:47;3.93;;;2.33;;
6987;SDS011;3534;49.960;8.018;2022-10-16T14:23:19;1.90;;;1.80;;
6987;SDS011;3534;49.960;8.018;2022-10-16T14:25:48;1.87;;;1.67;;
6987;SDS011;3534;49.960;8.018;2022-10-16T14:28:15;3.13;;;2.30;;
6987;SDS011;3534;49.960;8.018;2022-10-16T14:30:50;1.80;;;1.47;;
6987;SDS011;3534;49.960;8.018;2022-10-16T14:33:21;6.07;;;3.23;;
6987;SDS011;3534;49.960;8.018;2022-10-16T14:35:59;5.00;;;2.63;;
6987;SDS011;3534;49.960;8.018;2022-10-16T14:38:28;3.10;;;2.67;;
6987;SDS011;3534;49.960;8.018;2022-10-16T14:40:56;3.33;;;2.03;;
6987;SDS011;3534;49.960;8.018;2022-10-16T14:43:26;2.70;;;1.70;;
6987;SDS011;3534;49.960;8.018;2022-10-16T14:45:59;2.30;;;1.43;;
6987;SDS011;3534;49.960;8.018;2022-10-16T14:48:28;4.47;;;1.90;;
6987;SDS011;3534;49.960;8.018;2022-10-16T14:50:55;1.80;;;1.70;;
6987;SDS011;3534;49.960;8.018;2022-10-16T14:53:22;1.97;;;1.50;;
6987;SDS011;3534;49.960;8.018;2022-10-16T14:55:49;1.93;;;1.73;;
6987;SDS011;3534;49.960;8.018;2022-10-16T14:58:16;37.67;;;22.90;;
6987;SDS011;3534;49.960;8.018;2022-10-16T15:00:44;166.47;;;84.47;;
6987;SDS011;3534;49.960;8.018;2022-10-16T15:03:13;193.00;;;85.20;;
6987;SDS011;3534;49.960;8.018;2022-10-16T15:05:40;22.33;;;13.53;;
6987;SDS011;3534;49.960;8.018;2022-10-16T15:08:07;10.83;;;6.37;;
6987;SDS011;3534;49.960;8.018;2022-10-16T15:10:36;15.40;;;8.23;;
6987;SDS011;3534;49.960;8.018;2022-10-16T15:13:05;6.40;;;2.60;;
6987;SDS011;3534;49.960;8.018;2022-10-16T15:15:33;4.03;;;2.43;;
6987;SDS011;3534;49.960;8.018;2022-10-16T15:18:01;3.67;;;2.40;;
6987;SDS011;3534;49.960;8.018;2022-10-16T15:20:30;3.60;;;2.20;;
6987;SDS011;3534;49.960;8.018;2022-10-16T15:22:59;2.10;;;1.83;;
6987;SDS011;3534;49.960;8.018;2022-10-16T15:25:30;6.50;;;2.23;;
6987;SDS011;3534;49.960;8.018;2022-10-16T15:28:00;6.30;;;2.90;;
6987;SDS011;3534;49.960;8.018;2022-10-16T15:30:27;3.73;;;2.33;;
6987;SDS011;3534;49.960;8.018;2022-10-16T15:32:54;3.60;;;2.30;;
6987;SDS011;3534;49.960;8.018;2022-10-16T15:35:21;3.27;;;1.83;;
6987;SDS011;3534;49.960;8.018;2022-10-16T15:37:49;11.40;;;2.37;;
6987;SDS011;3534;49.960;8.018;2022-10-16T15:40:17;6.20;;;2.50;;
6987;SDS011;3534;49.960;8.018;2022-10-16T15:42:45;3.90;;;2.00;;
6987;SDS011;3534;49.960;8.018;2022-10-16T15:45:12;5.33;;;2.37;;
6987;SDS011;3534;49.960;8.018;2022-10-16T15:47:40;2.17;;;1.83;;